sensor_id;sensor_type;location;lat;lon;timestamp;P1;durP1;ratioP1;P2;durP2;ratioP2
19482;SDS011;9882;51.166;6.992;2022-09-29T04:02:09;12.98;;;5.70;;
19482;SDS011;9882;51.166;6.992;2022-09-29T04:04:38;15.45;;;6.18;;
19482;SDS011;9882;51.166;6.992;2022-09-29T04:07:06;13.07;;;6.03;;
19482;SDS011;9882;51.166;6.992;2022-09-29T04:09:35;20.73;;;6.50;;
19482;SDS011;9882;51.166;6.992;2022-09-29T04:12:04;14.68;;;6.32;;
19482;SDS011;9882;51.166;6.992;2022-09-29T04:35:06;18.60;;;6.55;;
19482;SDS011;9882;51.166;6.992;2022-09-29T04:37:36;14.38;;;6.10;;
19482;SDS011;9882;51.166;6.992;2022-09-29T04:40:05;14.60;;;5.72;;
19482;SDS011;9882;51.166;6.992;2022-09-29T04:42:34;14.00;;;6.03;;
19482;SDS011;9882;51.166;6.992;2022-09-29T04:45:03;16.52;;;6.68;;
19482;SDS011;9882;51.166;6.992;2022-09-29T05:39:39;13.88;;;5.75;;
19482;SDS011;9882;51.166;6.992;2022-09-29T05:42:09;11.80;;;5.72;;
19482;SDS011;9882;51.166;6.992;2022-09-29T05:44:39;17.45;;;6.97;;
19482;SDS011;9882;51.166;6.992;2022-09-29T05:47:08;15.43;;;6.28;;
19482;SDS011;9882;51.166;6.992;2022-09-29T05:49:36;13.38;;;6.20;;
19482;SDS011;9882;51.166;6.992;2022-09-29T05:52:05;16.42;;;6.35;;
19482;SDS011;9882;51.166;6.992;2022-09-29T05:54:33;14.00;;;6.28;;
19482;SDS011;9882;51.166;6.992;2022-09-29T05:57:03;13.57;;;6.18;;
19482;SDS011;9882;51.166;6.992;2022-09-29T05:59:32;12.85;;;5.97;;
19482;SDS011;9882;51.166;6.992;2022-09-29T06:02:01;13.75;;;5.82;;
19482;SDS011;9882;51.166;6.992;2022-09-29T06:04:29;14.85;;;6.18;;
19482;SDS011;9882;51.166;6.992;2022-09-29T06:07:00;13.40;;;5.75;;
19482;SDS011;9882;51.166;6.992;2022-09-29T06:09:31;12.57;;;5.30;;
19482;SDS011;9882;51.166;6.992;2022-09-29T06:12:01;15.52;;;6.20;;
19482;SDS011;9882;51.166;6.992;2022-09-29T06:14:32;12.80;;;6.18;;
19482;SDS011;9882;51.166;6.992;2022-09-29T06:17:00;13.82;;;6.25;;
19482;SDS011;9882;51.166;6.992;2022-09-29T06:19:29;12.75;;;5.78;;
19482;SDS011;9882;51.166;6.992;2022-09-29T06:21:57;12.25;;;6.00;;
19482;SDS011;9882;51.166;6.992;2022-09-29T06:24:26;17.10;;;6.47;;
19482;SDS011;9882;51.166;6.992;2022-09-29T06:26:55;13.68;;;6.10;;
19482;SDS011;9882;51.166;6.992;2022-09-29T06:29:25;13.55;;;5.68;;
19482;SDS011;9882;51.166;6.992;2022-09-29T06:31:54;16.05;;;6.65;;
19482;SDS011;9882;51.166;6.992;2022-09-29T06:34:23;16.67;;;6.63;;
19482;SDS011;9882;51.166;6.992;2022-09-29T06:36:52;13.23;;;6.18;;
19482;SDS011;9882;51.166;6.992;2022-09-29T06:39:38;22.15;;;6.82;;
19482;SDS011;9882;51.166;6.992;2022-09-29T06:42:06;22.50;;;8.57;;
19482;SDS011;9882;51.166;6.992;2022-09-29T06:44:36;20.88;;;7.78;;
19482;SDS011;9882;51.166;6.992;2022-09-29T06:47:05;17.85;;;7.03;;
19482;SDS011;9882;51.166;6.992;2022-09-29T06:49:34;15.00;;;6.03;;
19482;SDS011;9882;51.166;6.992;2022-09-29T06:52:03;17.88;;;6.30;;
19482;SDS011;9882;51.166;6.992;2022-09-29T06:54:40;16.80;;;6.47;;
19482;SDS011;9882;51.166;6.992;2022-09-29T06:57:09;17.88;;;7.47;;
19482;SDS011;9882;51.166;6.992;2022-09-29T06:59:39;13.40;;;5.93;;
19482;SDS011;9882;51.166;6.992;2022-09-29T07:02:08;13.32;;;5.97;;
19482;SDS011;9882;51.166;6.992;2022-09-29T07:04:37;14.40;;;5.93;;
19482;SDS011;9882;51.166;6.992;2022-09-29T07:07:05;11.77;;;5.18;;
19482;SDS011;9882;51.166;6.992;2022-09-29T07:09:34;12.57;;;6.30;;
19482;SDS011;9882;51.166;6.992;2022-09-29T07:12:02;14.35;;;5.85;;
19482;SDS011;9882;51.166;6.992;2022-09-29T07:14:31;14.95;;;6.50;;
19482;SDS011;9882;51.166;6.992;2022-09-29T07:17:01;12.02;;;5.78;;
19482;SDS011;9882;51.166;6.992;2022-09-29T07:19:30;11.55;;;5.22;;
19482;SDS011;9882;51.166;6.992;2022-09-29T07:21:59;16.95;;;6.60;;
19482;SDS011;9882;51.166;6.992;2022-09-29T07:24:27;16.27;;;6.53;;
19482;SDS011;9882;51.166;6.992;2022-09-29T07:26:56;17.77;;;6.53;;
19482;SDS011;9882;51.166;6.992;2022-09-29T07:29:24;16.98;;;6.40;;
19482;SDS011;9882;51.166;6.992;2022-09-29T07:31:53;20.20;;;6.20;;
19482;SDS011;9882;51.166;6.992;2022-09-29T07:34:23;16.08;;;6.13;;
19482;SDS011;9882;51.166;6.992;2022-09-29T07:36:51;13.48;;;5.72;;
19482;SDS011;9882;51.166;6.992;2022-09-29T07:39:20;12.30;;;5.25;;
19482;SDS011;9882;51.166;6.992;2022-09-29T07:41:48;16.02;;;6.13;;
19482;SDS011;9882;51.166;6.992;2022-09-29T07:44:17;12.43;;;5.18;;
19482;SDS011;9882;51.166;6.992;2022-09-29T07:46:47;13.57;;;5.10;;
19482;SDS011;9882;51.166;6.992;2022-09-29T07:49:15;13.65;;;6.47;;
19482;SDS011;9882;51.166;6.992;2022-09-29T07:51:45;14.63;;;5.50;;
19482;SDS011;9882;51.166;6.992;2022-09-29T07:54:14;16.27;;;5.93;;
19482;SDS011;9882;51.166;6.992;2022-09-29T07:56:43;12.60;;;5.68;;
19482;SDS011;9882;51.166;6.992;2022-09-29T07:59:12;17.48;;;6.82;;
19482;SDS011;9882;51.166;6.992;2022-09-29T08:01:40;13.57;;;5.45;;
19482;SDS011;9882;51.166;6.992;2022-09-29T08:04:09;18.45;;;7.25;;
19482;SDS011;9882;51.166;6.992;2022-09-29T08:06:37;16.38;;;6.47;;
19482;SDS011;9882;51.166;6.992;2022-09-29T08:09:09;12.52;;;5.38;;
19482;SDS011;9882;51.166;6.992;2022-09-29T08:11:38;12.55;;;6.22;;
19482;SDS011;9882;51.166;6.992;2022-09-29T08:14:08;15.27;;;7.00;;
19482;SDS011;9882;51.166;6.992;2022-09-29T08:16:38;15.45;;;6.28;;
19482;SDS011;9882;51.166;6.992;2022-09-29T08:19:06;16.25;;;6.60;;
19482;SDS011;9882;51.166;6.992;2022-09-29T08:21:35;20.15;;;7.45;;
19482;SDS011;9882;51.166;6.992;2022-09-29T08:24:04;18.80;;;7.22;;
19482;SDS011;9882;51.166;6.992;2022-09-29T08:26:36;18.52;;;6.88;;
19482;SDS011;9882;51.166;6.992;2022-09-29T08:29:08;15.88;;;7.07;;
19482;SDS011;9882;51.166;6.992;2022-09-29T08:31:40;18.05;;;7.18;;
19482;SDS011;9882;51.166;6.992;2022-09-29T08:34:09;10.70;;;5.57;;
19482;SDS011;9882;51.166;6.992;2022-09-29T08:36:39;13.48;;;5.90;;
19482;SDS011;9882;51.166;6.992;2022-09-29T08:39:08;21.20;;;6.88;;
19482;SDS011;9882;51.166;6.992;2022-09-29T08:41:44;17.42;;;7.20;;
19482;SDS011;9882;51.166;6.992;2022-09-29T08:44:18;18.15;;;7.25;;
19482;SDS011;9882;51.166;6.992;2022-09-29T08:47:03;17.05;;;6.72;;
19482;SDS011;9882;51.166;6.992;2022-09-29T08:49:40;15.80;;;7.13;;
19482;SDS011;9882;51.166;6.992;2022-09-29T08:52:12;16.30;;;6.60;;
19482;SDS011;9882;51.166;6.992;2022-09-29T08:54:44;18.20;;;6.63;;
19482;SDS011;9882;51.166;6.992;2022-09-29T08:57:16;16.00;;;7.22;;
19482;SDS011;9882;51.166;6.992;2022-09-29T08:59:48;29.85;;;7.85;;
19482;SDS011;9882;51.166;6.992;2022-09-29T09:05:38;17.35;;;7.45;;
19482;SDS011;9882;51.166;6.992;2022-09-29T09:08:16;18.35;;;7.35;;
19482;SDS011;9882;51.166;6.992;2022-09-29T09:10:57;19.42;;;8.00;;
19482;SDS011;9882;51.166;6.992;2022-09-29T09:13:38;17.13;;;7.45;;
19482;SDS011;9882;51.166;6.992;2022-09-29T09:16:20;17.00;;;7.15;;
19482;SDS011;9882;51.166;6.992;2022-09-29T09:18:58;16.38;;;7.28;;
19482;SDS011;9882;51.166;6.992;2022-09-29T09:21:35;18.45;;;6.63;;
19482;SDS011;9882;51.166;6.992;2022-09-29T09:24:13;16.98;;;6.85;;
19482;SDS011;9882;51.166;6.992;2022-09-29T09:26:46;20.35;;;7.10;;
19482;SDS011;9882;51.166;6.992;2022-09-29T09:29:17;16.67;;;6.85;;
19482;SDS011;9882;51.166;6.992;2022-09-29T09:31:53;15.82;;;6.78;;
19482;SDS011;9882;51.166;6.992;2022-09-29T09:34:26;21.02;;;7.63;;
19482;SDS011;9882;51.166;6.992;2022-09-29T09:37:07;26.05;;;8.00;;
19482;SDS011;9882;51.166;6.992;2022-09-29T09:39:42;17.80;;;7.30;;
19482;SDS011;9882;51.166;6.992;2022-09-29T09:42:16;18.15;;;6.78;;
19482;SDS011;9882;51.166;6.992;2022-09-29T09:44:48;18.65;;;7.43;;
19482;SDS011;9882;51.166;6.992;2022-09-29T09:47:22;22.38;;;7.35;;
19482;SDS011;9882;51.166;6.992;2022-09-29T09:49:55;18.35;;;7.40;;
19482;SDS011;9882;51.166;6.992;2022-09-29T09:52:26;20.02;;;7.43;;
19482;SDS011;9882;51.166;6.992;2022-09-29T09:55:01;16.67;;;7.53;;
19482;SDS011;9882;51.166;6.992;2022-09-29T09:57:47;17.42;;;7.22;;
19482;SDS011;9882;51.166;6.992;2022-09-29T10:00:29;19.70;;;7.40;;
19482;SDS011;9882;51.166;6.992;2022-09-29T10:03:02;12.32;;;6.22;;
19482;SDS011;9882;51.166;6.992;2022-09-29T10:05:34;19.30;;;7.38;;
19482;SDS011;9882;51.166;6.992;2022-09-29T10:08:05;19.80;;;7.60;;
19482;SDS011;9882;51.166;6.992;2022-09-29T10:10:39;20.98;;;7.43;;
19482;SDS011;9882;51.166;6.992;2022-09-29T10:13:13;20.67;;;7.05;;
19482;SDS011;9882;51.166;6.992;2022-09-29T10:15:46;17.00;;;6.85;;
19482;SDS011;9882;51.166;6.992;2022-09-29T10:18:19;15.80;;;6.57;;
19482;SDS011;9882;51.166;6.992;2022-09-29T10:20:53;18.92;;;7.50;;
19482;SDS011;9882;51.166;6.992;2022-09-29T10:23:29;14.85;;;6.63;;
19482;SDS011;9882;51.166;6.992;2022-09-29T10:26:03;17.23;;;6.32;;
19482;SDS011;9882;51.166;6.992;2022-09-29T10:28:39;17.15;;;6.50;;
19482;SDS011;9882;51.166;6.992;2022-09-29T10:31:19;16.00;;;6.15;;
19482;SDS011;9882;51.166;6.992;2022-09-29T10:33:54;12.70;;;5.68;;
19482;SDS011;9882;51.166;6.992;2022-09-29T10:36:26;14.23;;;5.70;;
19482;SDS011;9882;51.166;6.992;2022-09-29T10:38:59;16.35;;;5.93;;
19482;SDS011;9882;51.166;6.992;2022-09-29T10:41:32;12.98;;;6.05;;
19482;SDS011;9882;51.166;6.992;2022-09-29T10:44:20;20.17;;;6.35;;
19482;SDS011;9882;51.166;6.992;2022-09-29T10:46:53;16.83;;;6.22;;
19482;SDS011;9882;51.166;6.992;2022-09-29T10:49:23;13.93;;;5.57;;
19482;SDS011;9882;51.166;6.992;2022-09-29T10:52:01;11.07;;;5.10;;
19482;SDS011;9882;51.166;6.992;2022-09-29T10:54:33;12.85;;;4.75;;
19482;SDS011;9882;51.166;6.992;2022-09-29T10:57:13;16.58;;;5.78;;
19482;SDS011;9882;51.166;6.992;2022-09-29T10:59:46;14.18;;;5.38;;
19482;SDS011;9882;51.166;6.992;2022-09-29T11:02:19;11.63;;;5.20;;
19482;SDS011;9882;51.166;6.992;2022-09-29T11:04:50;13.68;;;4.93;;
19482;SDS011;9882;51.166;6.992;2022-09-29T11:07:21;12.68;;;4.70;;
19482;SDS011;9882;51.166;6.992;2022-09-29T11:09:50;13.55;;;4.93;;
19482;SDS011;9882;51.166;6.992;2022-09-29T11:12:27;11.88;;;5.18;;
19482;SDS011;9882;51.166;6.992;2022-09-29T11:14:58;10.90;;;4.38;;
19482;SDS011;9882;51.166;6.992;2022-09-29T11:17:30;12.30;;;4.43;;
19482;SDS011;9882;51.166;6.992;2022-09-29T11:20:05;9.77;;;4.13;;
19482;SDS011;9882;51.166;6.992;2022-09-29T11:22:46;11.75;;;4.82;;
19482;SDS011;9882;51.166;6.992;2022-09-29T11:25:28;21.60;;;5.10;;
19482;SDS011;9882;51.166;6.992;2022-09-29T11:28:09;9.80;;;4.22;;
19482;SDS011;9882;51.166;6.992;2022-09-29T11:30:58;19.65;;;5.18;;
19482;SDS011;9882;51.166;6.992;2022-09-29T11:33:40;14.70;;;5.00;;
19482;SDS011;9882;51.166;6.992;2022-09-29T11:36:18;9.40;;;4.38;;
19482;SDS011;9882;51.166;6.992;2022-09-29T11:38:56;10.43;;;4.40;;
19482;SDS011;9882;51.166;6.992;2022-09-29T11:41:41;10.02;;;4.13;;
19482;SDS011;9882;51.166;6.992;2022-09-29T11:44:26;10.98;;;4.05;;
19482;SDS011;9882;51.166;6.992;2022-09-29T11:47:08;20.95;;;3.88;;
19482;SDS011;9882;51.166;6.992;2022-09-29T11:49:51;10.18;;;3.72;;
19482;SDS011;9882;51.166;6.992;2022-09-29T11:52:33;12.13;;;4.20;;
19482;SDS011;9882;51.166;6.992;2022-09-29T11:55:25;6.90;;;3.22;;
19482;SDS011;9882;51.166;6.992;2022-09-29T11:58:09;10.40;;;3.53;;
19482;SDS011;9882;51.166;6.992;2022-09-29T12:00:52;9.63;;;4.05;;
19482;SDS011;9882;51.166;6.992;2022-09-29T12:03:30;3.70;;;2.97;;
19482;SDS011;9882;51.166;6.992;2022-09-29T12:06:27;7.78;;;3.70;;
19482;SDS011;9882;51.166;6.992;2022-09-29T12:09:14;9.98;;;3.97;;
19482;SDS011;9882;51.166;6.992;2022-09-29T12:11:57;9.38;;;3.90;;
19482;SDS011;9882;51.166;6.992;2022-09-29T12:17:46;12.75;;;4.10;;
19482;SDS011;9882;51.166;6.992;2022-09-29T12:20:19;9.68;;;3.92;;
19482;SDS011;9882;51.166;6.992;2022-09-29T12:22:52;9.93;;;3.38;;
19482;SDS011;9882;51.166;6.992;2022-09-29T12:25:24;12.75;;;3.40;;
19482;SDS011;9882;51.166;6.992;2022-09-29T12:27:57;7.47;;;3.33;;
19482;SDS011;9882;51.166;6.992;2022-09-29T12:30:31;12.60;;;3.63;;
19482;SDS011;9882;51.166;6.992;2022-09-29T12:33:04;7.60;;;3.35;;
19482;SDS011;9882;51.166;6.992;2022-09-29T12:35:41;22.65;;;3.58;;
19482;SDS011;9882;51.166;6.992;2022-09-29T12:38:21;12.05;;;3.63;;
19482;SDS011;9882;51.166;6.992;2022-09-29T12:41:00;12.00;;;3.65;;
19482;SDS011;9882;51.166;6.992;2022-09-29T12:43:38;8.88;;;3.05;;
19482;SDS011;9882;51.166;6.992;2022-09-29T12:46:26;7.68;;;3.10;;
19482;SDS011;9882;51.166;6.992;2022-09-29T12:49:03;9.75;;;3.13;;
19482;SDS011;9882;51.166;6.992;2022-09-29T12:51:41;7.78;;;3.63;;
19482;SDS011;9882;51.166;6.992;2022-09-29T12:54:15;11.60;;;3.60;;
19482;SDS011;9882;51.166;6.992;2022-09-29T12:56:53;8.48;;;3.35;;
19482;SDS011;9882;51.166;6.992;2022-09-29T12:59:31;14.65;;;4.55;;
19482;SDS011;9882;51.166;6.992;2022-09-29T13:02:07;7.20;;;3.30;;
19482;SDS011;9882;51.166;6.992;2022-09-29T13:05:08;6.22;;;3.10;;
19482;SDS011;9882;51.166;6.992;2022-09-29T13:14:40;10.05;;;3.53;;
19482;SDS011;9882;51.166;6.992;2022-09-29T13:29:09;6.60;;;3.28;;
19482;SDS011;9882;51.166;6.992;2022-09-29T13:31:43;8.43;;;3.38;;
19482;SDS011;9882;51.166;6.992;2022-09-29T13:34:18;17.35;;;4.50;;
19482;SDS011;9882;51.166;6.992;2022-09-29T13:36:53;7.95;;;3.75;;
19482;SDS011;9882;51.166;6.992;2022-09-29T13:39:33;11.50;;;4.20;;
19482;SDS011;9882;51.166;6.992;2022-09-29T13:45:15;8.07;;;3.60;;
19482;SDS011;9882;51.166;6.992;2022-09-29T13:48:09;9.77;;;3.60;;
19482;SDS011;9882;51.166;6.992;2022-09-29T13:54:22;7.15;;;3.28;;
19482;SDS011;9882;51.166;6.992;2022-09-29T14:06:01;9.07;;;3.17;;
19482;SDS011;9882;51.166;6.992;2022-09-29T14:08:57;6.00;;;2.97;;
19482;SDS011;9882;51.166;6.992;2022-09-29T14:11:32;4.45;;;2.90;;
19482;SDS011;9882;51.166;6.992;2022-09-29T14:14:04;4.70;;;2.47;;
19482;SDS011;9882;51.166;6.992;2022-09-29T14:16:37;10.48;;;3.17;;
19482;SDS011;9882;51.166;6.992;2022-09-29T14:19:23;9.70;;;3.22;;
19482;SDS011;9882;51.166;6.992;2022-09-29T14:25:26;5.68;;;3.03;;
19482;SDS011;9882;51.166;6.992;2022-09-29T14:28:00;10.45;;;3.20;;
19482;SDS011;9882;51.166;6.992;2022-09-29T14:30:38;7.00;;;3.10;;
19482;SDS011;9882;51.166;6.992;2022-09-29T14:33:13;9.82;;;3.40;;
19482;SDS011;9882;51.166;6.992;2022-09-29T14:35:48;10.55;;;3.40;;
19482;SDS011;9882;51.166;6.992;2022-09-29T14:38:29;7.82;;;2.65;;
19482;SDS011;9882;51.166;6.992;2022-09-29T14:41:00;7.55;;;2.92;;
19482;SDS011;9882;51.166;6.992;2022-09-29T14:43:36;6.70;;;3.05;;
19482;SDS011;9882;51.166;6.992;2022-09-29T14:46:13;12.77;;;3.25;;
19482;SDS011;9882;51.166;6.992;2022-09-29T14:52:35;8.45;;;3.30;;
19482;SDS011;9882;51.166;6.992;2022-09-29T14:55:14;6.43;;;3.28;;
19482;SDS011;9882;51.166;6.992;2022-09-29T14:57:55;5.82;;;2.72;;
19482;SDS011;9882;51.166;6.992;2022-09-29T15:00:41;9.43;;;3.30;;
19482;SDS011;9882;51.166;6.992;2022-09-29T15:03:22;7.30;;;2.80;;
19482;SDS011;9882;51.166;6.992;2022-09-29T15:06:05;5.57;;;2.42;;
19482;SDS011;9882;51.166;6.992;2022-09-29T15:08:39;3.92;;;2.80;;
19482;SDS011;9882;51.166;6.992;2022-09-29T15:14:15;4.95;;;2.75;;
19482;SDS011;9882;51.166;6.992;2022-09-29T15:16:53;6.43;;;2.88;;
19482;SDS011;9882;51.166;6.992;2022-09-29T15:19:35;5.22;;;2.90;;
19482;SDS011;9882;51.166;6.992;2022-09-29T15:22:22;17.60;;;2.65;;
19482;SDS011;9882;51.166;6.992;2022-09-29T15:25:16;8.60;;;3.00;;
19482;SDS011;9882;51.166;6.992;2022-09-29T15:27:50;9.73;;;2.78;;
19482;SDS011;9882;51.166;6.992;2022-09-29T15:30:21;5.15;;;2.90;;
19482;SDS011;9882;51.166;6.992;2022-09-29T15:32:53;9.00;;;3.08;;
19482;SDS011;9882;51.166;6.992;2022-09-29T15:35:40;6.85;;;2.78;;
19482;SDS011;9882;51.166;6.992;2022-09-29T15:38:25;6.45;;;2.58;;
19482;SDS011;9882;51.166;6.992;2022-09-29T15:40:59;5.55;;;2.60;;
19482;SDS011;9882;51.166;6.992;2022-09-29T15:43:37;7.35;;;2.80;;
19482;SDS011;9882;51.166;6.992;2022-09-29T15:46:14;5.72;;;2.80;;
19482;SDS011;9882;51.166;6.992;2022-09-29T15:49:08;4.40;;;2.80;;
19482;SDS011;9882;51.166;6.992;2022-09-29T15:51:39;5.25;;;2.60;;
19482;SDS011;9882;51.166;6.992;2022-09-29T15:54:10;10.75;;;2.90;;
19482;SDS011;9882;51.166;6.992;2022-09-29T15:56:40;3.38;;;2.65;;
19482;SDS011;9882;51.166;6.992;2022-09-29T15:59:38;9.05;;;3.40;;
19482;SDS011;9882;51.166;6.992;2022-09-29T16:02:20;8.75;;;3.40;;
19482;SDS011;9882;51.166;6.992;2022-09-29T16:04:59;6.60;;;3.05;;
19482;SDS011;9882;51.166;6.992;2022-09-29T16:07:32;7.25;;;2.70;;
19482;SDS011;9882;51.166;6.992;2022-09-29T16:10:04;5.05;;;2.90;;
19482;SDS011;9882;51.166;6.992;2022-09-29T16:12:44;5.95;;;2.78;;
19482;SDS011;9882;51.166;6.992;2022-09-29T16:15:17;9.82;;;2.88;;
19482;SDS011;9882;51.166;6.992;2022-09-29T16:17:48;4.72;;;3.40;;
19482;SDS011;9882;51.166;6.992;2022-09-29T16:20:22;14.07;;;3.42;;
19482;SDS011;9882;51.166;6.992;2022-09-29T16:22:54;7.30;;;3.20;;
19482;SDS011;9882;51.166;6.992;2022-09-29T16:25:23;8.70;;;2.92;;
19482;SDS011;9882;51.166;6.992;2022-09-29T16:27:54;4.65;;;2.80;;
19482;SDS011;9882;51.166;6.992;2022-09-29T16:30:25;6.90;;;2.70;;
19482;SDS011;9882;51.166;6.992;2022-09-29T16:33:00;6.03;;;2.95;;
19482;SDS011;9882;51.166;6.992;2022-09-29T16:35:43;9.20;;;3.13;;
19482;SDS011;9882;51.166;6.992;2022-09-29T16:38:17;6.43;;;2.90;;
19482;SDS011;9882;51.166;6.992;2022-09-29T16:40:51;6.90;;;3.00;;
19482;SDS011;9882;51.166;6.992;2022-09-29T16:43:23;8.27;;;3.20;;
19482;SDS011;9882;51.166;6.992;2022-09-29T16:45:55;3.97;;;2.65;;
19482;SDS011;9882;51.166;6.992;2022-09-29T16:48:27;4.15;;;2.50;;
19482;SDS011;9882;51.166;6.992;2022-09-29T16:51:07;5.47;;;2.95;;
19482;SDS011;9882;51.166;6.992;2022-09-29T16:53:56;4.10;;;2.50;;
19482;SDS011;9882;51.166;6.992;2022-09-29T16:56:26;5.18;;;2.63;;
19482;SDS011;9882;51.166;6.992;2022-09-29T16:59:02;4.20;;;2.72;;
19482;SDS011;9882;51.166;6.992;2022-09-29T17:01:37;6.03;;;2.88;;
19482;SDS011;9882;51.166;6.992;2022-09-29T17:04:07;5.10;;;2.40;;
19482;SDS011;9882;51.166;6.992;2022-09-29T17:06:37;7.47;;;2.47;;
19482;SDS011;9882;51.166;6.992;2022-09-29T17:09:15;4.38;;;2.47;;
19482;SDS011;9882;51.166;6.992;2022-09-29T17:11:46;5.45;;;2.65;;
19482;SDS011;9882;51.166;6.992;2022-09-29T17:14:15;5.43;;;2.80;;
19482;SDS011;9882;51.166;6.992;2022-09-29T17:16:47;5.22;;;2.90;;
19482;SDS011;9882;51.166;6.992;2022-09-29T17:19:17;6.97;;;3.08;;
19482;SDS011;9882;51.166;6.992;2022-09-29T17:21:50;6.95;;;3.50;;
19482;SDS011;9882;51.166;6.992;2022-09-29T17:24:22;6.47;;;3.20;;
19482;SDS011;9882;51.166;6.992;2022-09-29T17:26:51;11.63;;;4.40;;
19482;SDS011;9882;51.166;6.992;2022-09-29T17:29:37;10.55;;;4.18;;
19482;SDS011;9882;51.166;6.992;2022-09-29T17:32:08;12.60;;;5.15;;
19482;SDS011;9882;51.166;6.992;2022-09-29T17:34:40;14.00;;;4.93;;
19482;SDS011;9882;51.166;6.992;2022-09-29T17:37:10;13.73;;;4.97;;
19482;SDS011;9882;51.166;6.992;2022-09-29T17:39:44;11.05;;;4.65;;
19482;SDS011;9882;51.166;6.992;2022-09-29T17:42:13;12.82;;;4.88;;
19482;SDS011;9882;51.166;6.992;2022-09-29T17:44:43;12.32;;;5.10;;
19482;SDS011;9882;51.166;6.992;2022-09-29T17:47:13;14.77;;;5.72;;
19482;SDS011;9882;51.166;6.992;2022-09-29T17:49:52;15.75;;;5.47;;
19482;SDS011;9882;51.166;6.992;2022-09-29T17:52:23;15.63;;;5.53;;
19482;SDS011;9882;51.166;6.992;2022-09-29T17:54:52;10.35;;;4.88;;
19482;SDS011;9882;51.166;6.992;2022-09-29T17:57:22;14.10;;;5.88;;
19482;SDS011;9882;51.166;6.992;2022-09-29T17:59:54;16.60;;;6.07;;
19482;SDS011;9882;51.166;6.992;2022-09-29T18:02:24;12.57;;;5.75;;
19482;SDS011;9882;51.166;6.992;2022-09-29T18:04:53;16.13;;;5.95;;
19482;SDS011;9882;51.166;6.992;2022-09-29T18:07:24;20.65;;;6.32;;
19482;SDS011;9882;51.166;6.992;2022-09-29T18:09:53;14.43;;;5.63;;
19482;SDS011;9882;51.166;6.992;2022-09-29T18:12:22;12.10;;;5.78;;
19482;SDS011;9882;51.166;6.992;2022-09-29T18:14:51;17.15;;;5.80;;
19482;SDS011;9882;51.166;6.992;2022-09-29T18:17:20;12.90;;;5.88;;
19482;SDS011;9882;51.166;6.992;2022-09-29T18:19:49;14.05;;;5.88;;
19482;SDS011;9882;51.166;6.992;2022-09-29T18:22:18;18.05;;;5.68;;
19482;SDS011;9882;51.166;6.992;2022-09-29T18:24:48;15.85;;;5.90;;
19482;SDS011;9882;51.166;6.992;2022-09-29T18:27:17;18.02;;;6.57;;
19482;SDS011;9882;51.166;6.992;2022-09-29T18:29:46;15.82;;;6.00;;
19482;SDS011;9882;51.166;6.992;2022-09-29T18:39:14;18.77;;;8.05;;
19482;SDS011;9882;51.166;6.992;2022-09-29T18:41:44;18.75;;;8.07;;
19482;SDS011;9882;51.166;6.992;2022-09-29T18:44:13;19.02;;;8.15;;
19482;SDS011;9882;51.166;6.992;2022-09-29T18:46:42;18.02;;;7.85;;
19482;SDS011;9882;51.166;6.992;2022-09-29T18:49:13;21.40;;;8.82;;
19482;SDS011;9882;51.166;6.992;2022-09-29T18:51:42;21.70;;;8.95;;
19482;SDS011;9882;51.166;6.992;2022-09-29T18:54:11;21.83;;;8.90;;
19482;SDS011;9882;51.166;6.992;2022-09-29T18:56:40;19.95;;;8.88;;
19482;SDS011;9882;51.166;6.992;2022-09-29T18:59:11;17.35;;;7.70;;
19482;SDS011;9882;51.166;6.992;2022-09-29T19:01:40;16.95;;;7.63;;
19482;SDS011;9882;51.166;6.992;2022-09-29T19:04:08;20.55;;;8.48;;
19482;SDS011;9882;51.166;6.992;2022-09-29T19:06:37;18.90;;;8.02;;
19482;SDS011;9882;51.166;6.992;2022-09-29T19:09:05;20.38;;;7.97;;
19482;SDS011;9882;51.166;6.992;2022-09-29T19:11:34;25.25;;;8.20;;
19482;SDS011;9882;51.166;6.992;2022-09-29T19:14:02;20.33;;;7.90;;
19482;SDS011;9882;51.166;6.992;2022-09-29T19:16:32;17.38;;;7.00;;
19482;SDS011;9882;51.166;6.992;2022-09-29T19:19:01;23.27;;;8.07;;
19482;SDS011;9882;51.166;6.992;2022-09-29T19:21:30;15.98;;;7.13;;
19482;SDS011;9882;51.166;6.992;2022-09-29T19:23:59;17.10;;;7.43;;
19482;SDS011;9882;51.166;6.992;2022-09-29T19:26:28;15.15;;;6.70;;
19482;SDS011;9882;51.166;6.992;2022-09-29T19:28:56;21.63;;;7.82;;
19482;SDS011;9882;51.166;6.992;2022-09-29T19:31:25;18.33;;;7.43;;
19482;SDS011;9882;51.166;6.992;2022-09-29T19:33:58;21.75;;;8.63;;
19482;SDS011;9882;51.166;6.992;2022-09-29T19:36:26;20.85;;;7.78;;
19482;SDS011;9882;51.166;6.992;2022-09-29T19:38:55;18.42;;;7.82;;
19482;SDS011;9882;51.166;6.992;2022-09-29T19:41:23;22.05;;;7.80;;
19482;SDS011;9882;51.166;6.992;2022-09-29T19:43:52;21.67;;;8.23;;
19482;SDS011;9882;51.166;6.992;2022-09-29T19:46:20;26.10;;;8.90;;
19482;SDS011;9882;51.166;6.992;2022-09-29T19:48:49;20.73;;;8.23;;
19482;SDS011;9882;51.166;6.992;2022-09-29T19:51:18;18.38;;;7.72;;
19482;SDS011;9882;51.166;6.992;2022-09-29T19:54:05;23.60;;;8.88;;
19482;SDS011;9882;51.166;6.992;2022-09-29T19:56:38;17.48;;;7.78;;
19482;SDS011;9882;51.166;6.992;2022-09-29T19:59:08;20.75;;;8.10;;
19482;SDS011;9882;51.166;6.992;2022-09-29T20:01:37;16.67;;;7.30;;
19482;SDS011;9882;51.166;6.992;2022-09-29T20:04:05;21.27;;;8.27;;
19482;SDS011;9882;51.166;6.992;2022-09-29T20:06:36;20.77;;;7.80;;
19482;SDS011;9882;51.166;6.992;2022-09-29T20:09:05;18.90;;;7.68;;
19482;SDS011;9882;51.166;6.992;2022-09-29T20:11:34;17.25;;;8.05;;
19482;SDS011;9882;51.166;6.992;2022-09-29T20:14:04;19.90;;;7.97;;
19482;SDS011;9882;51.166;6.992;2022-09-29T20:16:35;20.98;;;8.10;;
19482;SDS011;9882;51.166;6.992;2022-09-29T20:19:07;26.80;;;9.27;;
19482;SDS011;9882;51.166;6.992;2022-09-29T20:21:41;28.17;;;10.10;;
19482;SDS011;9882;51.166;6.992;2022-09-29T20:24:10;27.30;;;10.07;;
19482;SDS011;9882;51.166;6.992;2022-09-29T20:26:40;22.02;;;9.40;;
19482;SDS011;9882;51.166;6.992;2022-09-29T20:29:10;23.92;;;9.82;;
19482;SDS011;9882;51.166;6.992;2022-09-29T20:31:38;25.20;;;9.30;;
19482;SDS011;9882;51.166;6.992;2022-09-29T20:34:07;23.05;;;9.57;;
19482;SDS011;9882;51.166;6.992;2022-09-29T20:36:36;27.13;;;10.35;;
19482;SDS011;9882;51.166;6.992;2022-09-29T20:39:06;22.20;;;10.05;;
19482;SDS011;9882;51.166;6.992;2022-09-29T20:41:36;24.77;;;10.40;;
19482;SDS011;9882;51.166;6.992;2022-09-29T20:44:04;26.48;;;10.40;;
19482;SDS011;9882;51.166;6.992;2022-09-29T20:46:33;28.70;;;9.30;;
19482;SDS011;9882;51.166;6.992;2022-09-29T20:49:02;22.50;;;10.27;;
19482;SDS011;9882;51.166;6.992;2022-09-29T20:51:31;23.40;;;8.90;;
19482;SDS011;9882;51.166;6.992;2022-09-29T20:54:03;23.98;;;9.13;;
19482;SDS011;9882;51.166;6.992;2022-09-29T20:56:33;33.55;;;9.32;;
19482;SDS011;9882;51.166;6.992;2022-09-29T20:59:08;20.98;;;8.32;;
19482;SDS011;9882;51.166;6.992;2022-09-29T21:01:37;22.73;;;7.93;;
19482;SDS011;9882;51.166;6.992;2022-09-29T21:04:08;18.55;;;7.45;;
19482;SDS011;9882;51.166;6.992;2022-09-29T21:06:38;18.95;;;7.65;;
19482;SDS011;9882;51.166;6.992;2022-09-29T21:09:09;19.13;;;7.28;;
19482;SDS011;9882;51.166;6.992;2022-09-29T21:11:45;23.45;;;7.95;;
19482;SDS011;9882;51.166;6.992;2022-09-29T21:14:18;19.25;;;7.63;;
19482;SDS011;9882;51.166;6.992;2022-09-29T21:16:49;17.63;;;7.05;;
19482;SDS011;9882;51.166;6.992;2022-09-29T21:19:20;19.00;;;7.22;;
19482;SDS011;9882;51.166;6.992;2022-09-29T21:21:51;19.95;;;7.32;;
19482;SDS011;9882;51.166;6.992;2022-09-29T21:24:20;17.83;;;6.72;;
19482;SDS011;9882;51.166;6.992;2022-09-29T21:26:49;20.38;;;7.53;;
19482;SDS011;9882;51.166;6.992;2022-09-29T21:29:18;21.35;;;6.75;;
19482;SDS011;9882;51.166;6.992;2022-09-29T21:31:46;24.52;;;8.05;;
19482;SDS011;9882;51.166;6.992;2022-09-29T21:34:20;17.95;;;7.15;;
19482;SDS011;9882;51.166;6.992;2022-09-29T21:36:49;15.90;;;7.13;;
19482;SDS011;9882;51.166;6.992;2022-09-29T21:39:17;18.98;;;7.00;;